Weymouth, United Kingdom
Current Conditions -  °F | °C
As of 5:50 PM on Monday 26 Jan 2015 (Local Time) from EGDY Reporting Station
Broken Clouds Broken Clouds  
Wind Chill: 38°   Ceiling: 25000
Heat Index: 45°   Visibility: 6mi
Dew Point: 37°   Wind: 15mph
Humidity: 76%   Direction: 300°WNW
Pressure: 30.33"   Gusts: NA
Location:  50.61°N, 2.45°W
Report Text: EGDY 261750Z 30013KT 9999 FEW020 BKN250 07/03 Q1027 BLU NOSIG
Loading
Personal Weather Stations






























Interactive Weather Map New forecast layout! Learn more

10-Day Weather Forecast

Advertisements
Track Severe Weather on mobile